Main page
METAR-TAF:

METAR-TAF

Airports :

Almería Airport

Almería, Spain

latitude: 36-51N, longitude: 002-23W, elevation: 15 m

Current weather observation

The report was made 20 minutes ago, at 00:00 UTC
Wind 7 kt from the West, varying between West/Southwest and Northwest
Temperature 13°C
Humidity 47%
Pressure 1012 hPa
Visibility 10 km or more
no clouds below 1500 m and no cumulonimbus

METAR: LEAM 230000Z AUTO 28007KT 250V310 CAVOK 13/02 Q1012

Time: 01:20 (00:20 UTC)

Forecast

The report was made 4 hours and 20 minutes ago, at 20:00 UTC
Forecast valid from 22 at 21 UTC to 23 at 21 UTC
Wind 10 kt from the Northwest
Visibility 10 km or more
Few clouds at a height of 3500 ft
Probability 40% :
Temporary
from 22 at 21 UTC to 23 at 09 UTC
Wind 16 kt from the Northwest with gusts up to 28 kt
Becoming
from 23 at 09 UTC to 23 at 12 UTC
Wind 8 kt from the Southwest

TAF: LEAM 222000Z 2221/2321 31010KT 9999 FEW035 TX18/2312Z TN09/2306Z PROB40 TEMPO 2221/2309 32016G28KT BECMG 2309/2312 22008KT

Weather observations and forecasts of more than 4000 airports (METAR and TAF reports).

The available stations are represented by yellow and red dots on the map.

Hover mouse over dot to see the name of the station.

Then click to see weather observations and forecasts.

To change the map : click on the green buttons with a black cross to zoom in, on the green button with a dash to zoom out, or on the green arrows for adjacent maps.


METAR-TAF: